createdAt,value
2024-02-10T00:01:14.490Z,102.90
2024-02-10T00:03:45.277Z,105.60
2024-02-10T00:06:15.881Z,93.40
2024-02-10T00:08:43.075Z,96.80
2024-02-10T00:11:11.496Z,106.80
2024-02-10T00:13:40.237Z,105.20
2024-02-10T00:16:07.606Z,102.60
2024-02-10T00:18:35.284Z,124.00
2024-02-10T00:21:02.758Z,126.30
2024-02-10T00:23:29.786Z,113.80
2024-02-10T00:25:57.328Z,111.00
2024-02-10T00:28:25.506Z,91.10
2024-02-10T00:30:56.268Z,97.40
2024-02-10T00:33:31.243Z,102.00
2024-02-10T00:35:57.927Z,91.90
2024-02-10T00:38:24.294Z,82.40
2024-02-10T00:40:50.741Z,86.30
2024-02-10T00:43:17.159Z,83.50
2024-02-10T00:45:46.890Z,85.40
2024-02-10T00:48:13.589Z,88.60
2024-02-10T00:50:40.882Z,97.40
2024-02-10T00:53:08.775Z,113.80
2024-02-10T00:55:35.101Z,121.40
2024-02-10T00:58:02.907Z,131.20
2024-02-10T01:00:31.063Z,111.10
2024-02-10T01:02:58.478Z,99.90
2024-02-10T01:05:26.534Z,108.40
2024-02-10T01:07:53.158Z,91.50
2024-02-10T01:10:20.636Z,94.20
2024-02-10T01:12:47.205Z,90.00
2024-02-10T01:15:13.936Z,86.60
2024-02-10T01:17:46.662Z,84.20
2024-02-10T01:20:17.521Z,85.50
2024-02-10T01:22:45.642Z,85.70
2024-02-10T01:25:12.361Z,77.80
2024-02-10T01:27:38.681Z,80.20
2024-02-10T01:30:05.092Z,85.70
2024-02-10T01:32:33.684Z,85.50
2024-02-10T01:35:00.025Z,88.10
2024-02-10T01:37:27.225Z,84.00
2024-02-10T01:39:56.690Z,88.00
2024-02-10T01:42:38.090Z,93.80
2024-02-10T01:45:04.647Z,94.40
2024-02-10T01:47:31.047Z,75.40
2024-02-10T01:49:57.599Z,65.60
2024-02-10T01:52:24.195Z,87.00
2024-02-10T01:54:50.470Z,98.50
2024-02-10T01:57:16.767Z,92.70
2024-02-10T01:59:44.931Z,89.40
2024-02-10T02:02:15.108Z,83.20
2024-02-10T02:04:41.529Z,86.00
2024-02-10T02:07:09.612Z,85.70
2024-02-10T02:09:35.996Z,67.30
2024-02-10T02:12:02.759Z,73.80
2024-02-10T02:14:29.170Z,61.60
2024-02-10T02:16:56.211Z,62.00
2024-02-10T02:19:22.538Z,61.20
2024-02-10T02:21:49.168Z,59.30
2024-02-10T02:24:16.655Z,59.80
2024-02-10T02:26:42.864Z,54.00
2024-02-10T02:29:09.299Z,50.10
2024-02-10T02:31:35.935Z,44.70
2024-02-10T02:34:04.805Z,53.70
2024-02-10T02:36:31.787Z,45.70
2024-02-10T02:39:02.406Z,42.20
2024-02-10T02:41:29.878Z,44.90
2024-02-10T02:43:56.444Z,36.50
2024-02-10T02:46:23.940Z,39.70
2024-02-10T02:48:51.095Z,32.30
2024-02-10T02:51:19.885Z,39.20
2024-02-10T02:53:49.017Z,35.00
2024-02-10T02:56:16.192Z,33.00
2024-02-10T02:58:42.467Z,33.70
2024-02-10T03:01:09.018Z,27.90
2024-02-10T03:03:35.427Z,30.80
2024-02-10T03:06:02.086Z,28.70
2024-02-10T03:08:29.894Z,29.60
2024-02-10T03:10:57.227Z,31.80
2024-02-10T03:13:25.731Z,26.50
2024-02-10T03:15:52.183Z,22.70
2024-02-10T03:18:18.989Z,22.40
2024-02-10T03:20:45.466Z,19.20
2024-02-10T03:23:14.556Z,20.10
2024-02-10T03:25:44.225Z,20.20
2024-02-10T03:28:10.722Z,15.50
2024-02-10T03:30:36.973Z,16.60
2024-02-10T03:33:03.606Z,16.50
2024-02-10T03:35:33.173Z,15.10
2024-02-10T03:37:59.688Z,19.20
2024-02-10T03:40:26.331Z,15.30
2024-02-10T03:42:52.702Z,15.50
2024-02-10T03:45:19.237Z,17.80
2024-02-10T03:47:45.599Z,15.70
2024-02-10T03:50:12.258Z,18.90
2024-02-10T03:52:38.622Z,21.70
2024-02-10T03:55:05.109Z,21.20
2024-02-10T03:57:32.463Z,18.50
2024-02-10T03:59:58.786Z,22.00
2024-02-10T04:02:25.005Z,17.70
2024-02-10T04:04:52.140Z,15.30
2024-02-10T04:07:18.692Z,17.20
2024-02-10T04:09:45.889Z,14.30
2024-02-10T04:12:12.257Z,12.70
2024-02-10T04:14:38.748Z,13.50
2024-02-10T04:17:05.089Z,13.40
2024-02-10T04:19:32.966Z,13.20
2024-02-10T04:21:59.206Z,13.90
2024-02-10T04:24:26.315Z,12.60
2024-02-10T04:26:52.732Z,13.60
2024-02-10T04:29:19.906Z,13.90
2024-02-10T04:31:47.702Z,10.10
2024-02-10T04:34:14.099Z,13.70
2024-02-10T04:36:41.418Z,12.80
2024-02-10T04:39:07.811Z,11.90
2024-02-10T04:41:34.554Z,11.80
2024-02-10T04:44:01.150Z,12.40
2024-02-10T04:46:29.729Z,16.10
2024-02-10T04:48:56.393Z,14.20
2024-02-10T04:51:24.037Z,13.80
2024-02-10T04:53:50.273Z,14.90
2024-02-10T04:56:16.904Z,14.20
2024-02-10T04:58:43.500Z,14.10
2024-02-10T05:01:11.212Z,12.30
2024-02-10T05:03:41.114Z,14.40
2024-02-10T05:06:11.300Z,12.80
2024-02-10T05:08:37.959Z,13.40
2024-02-10T05:11:04.321Z,14.90
2024-02-10T05:13:30.816Z,12.20
2024-02-10T05:15:57.503Z,13.30
2024-02-10T05:18:24.208Z,14.50
2024-02-10T05:20:50.787Z,12.40
2024-02-10T05:23:19.000Z,11.40
2024-02-10T05:25:45.393Z,12.90
2024-02-10T05:28:13.585Z,12.30
2024-02-10T05:30:40.142Z,12.00
2024-02-10T05:33:06.965Z,14.30
2024-02-10T05:35:33.722Z,14.50
2024-02-10T05:38:00.576Z,12.50
2024-02-10T05:40:27.298Z,15.10
2024-02-10T05:42:59.532Z,14.10
2024-02-10T05:45:25.969Z,14.60
2024-02-10T05:47:52.715Z,17.90
2024-02-10T05:50:20.056Z,16.10
2024-02-10T05:52:46.513Z,19.30
2024-02-10T05:55:12.894Z,17.00
2024-02-10T05:57:39.402Z,18.20
2024-02-10T06:00:10.015Z,18.70
2024-02-10T06:02:38.641Z,17.30
2024-02-10T06:05:05.054Z,16.80
2024-02-10T06:07:35.984Z,25.00
2024-02-10T06:10:02.592Z,37.10
2024-02-10T06:12:29.024Z,42.90
2024-02-10T06:14:55.320Z,38.70
2024-02-10T06:17:24.438Z,47.10
2024-02-10T06:19:52.018Z,37.40
2024-02-10T06:22:18.885Z,28.50
2024-02-10T06:24:45.141Z,33.00
2024-02-10T06:27:11.517Z,29.40
2024-02-10T06:29:37.754Z,24.30
2024-02-10T06:32:06.783Z,21.00
2024-02-10T06:34:35.484Z,17.90
2024-02-10T06:37:02.680Z,16.40
2024-02-10T06:39:29.916Z,15.00
2024-02-10T06:41:56.681Z,14.50
2024-02-10T06:44:22.898Z,13.70
2024-02-10T06:46:49.427Z,11.20
2024-02-10T06:49:21.443Z,11.80
2024-02-10T06:51:48.319Z,11.40
2024-02-10T06:54:15.055Z,10.70
2024-02-10T06:56:41.326Z,11.30
2024-02-10T06:59:07.697Z,11.80
2024-02-10T07:01:34.955Z,11.70
2024-02-10T07:04:02.855Z,15.10
2024-02-10T07:06:31.815Z,14.30
2024-02-10T07:09:04.486Z,17.10
2024-02-10T07:11:30.947Z,15.30
2024-02-10T07:13:57.383Z,15.20
2024-02-10T07:16:24.007Z,15.80
2024-02-10T07:18:51.903Z,17.30
2024-02-10T07:21:19.453Z,17.50
2024-02-10T07:23:45.700Z,15.70
2024-02-10T07:26:12.289Z,13.20
2024-02-10T07:28:38.594Z,14.00
2024-02-10T07:31:04.967Z,14.30
2024-02-10T07:33:31.286Z,12.30
2024-02-10T07:35:59.480Z,14.20
2024-02-10T07:38:25.779Z,13.00
2024-02-10T07:40:52.332Z,15.10
2024-02-10T07:43:18.779Z,14.60
2024-02-10T07:45:45.189Z,12.50
2024-02-10T07:48:11.621Z,11.20
2024-02-10T07:50:41.441Z,11.40
2024-02-10T07:53:11.566Z,11.50
2024-02-10T07:55:37.868Z,9.20
2024-02-10T07:58:10.174Z,10.20
2024-02-10T08:00:36.909Z,10.10
2024-02-10T08:03:04.592Z,8.90
2024-02-10T08:05:31.345Z,9.30
2024-02-10T08:08:00.833Z,10.30
2024-02-10T08:10:27.530Z,7.70
2024-02-10T08:12:54.542Z,9.60
2024-02-10T08:15:25.194Z,8.80
2024-02-10T08:17:51.862Z,8.10
2024-02-10T08:20:20.426Z,8.20
2024-02-10T08:22:49.157Z,7.20
2024-02-10T08:25:15.499Z,8.10
2024-02-10T08:27:42.060Z,8.60
2024-02-10T08:30:16.148Z,7.00
2024-02-10T08:32:42.807Z,7.10
2024-02-10T08:35:09.324Z,8.00
2024-02-10T08:37:36.221Z,6.70
2024-02-10T08:40:04.198Z,7.40
2024-02-10T08:42:30.923Z,9.10
2024-02-10T08:44:58.208Z,6.40
2024-02-10T08:47:28.302Z,6.60
2024-02-10T08:49:54.902Z,7.50
2024-02-10T08:52:24.103Z,7.80
2024-02-10T08:54:51.811Z,7.00
2024-02-10T08:57:20.245Z,7.10
2024-02-10T08:59:49.142Z,7.20
2024-02-10T09:02:17.360Z,7.90
2024-02-10T09:04:44.820Z,6.70
2024-02-10T09:07:11.204Z,6.30
2024-02-10T09:09:37.799Z,6.20
2024-02-10T09:12:04.192Z,4.70
2024-02-10T09:14:30.512Z,5.60
2024-02-10T09:16:57.091Z,5.50
2024-02-10T09:19:23.471Z,5.70
2024-02-10T09:21:56.032Z,4.90
2024-02-10T09:24:24.237Z,5.30
2024-02-10T09:26:50.532Z,4.50
2024-02-10T09:29:16.864Z,5.90
2024-02-10T09:31:43.216Z,5.30
2024-02-10T09:34:11.361Z,6.10
2024-02-10T09:36:37.989Z,6.90
2024-02-10T09:39:05.290Z,5.60
2024-02-10T09:41:31.909Z,6.70
2024-02-10T09:43:58.630Z,6.30
2024-02-10T09:46:25.158Z,5.60
2024-02-10T09:48:54.945Z,6.00
2024-02-10T09:51:21.276Z,5.50
2024-02-10T09:53:48.249Z,5.20
2024-02-10T09:56:14.889Z,5.50
2024-02-10T09:58:41.405Z,6.10
2024-02-10T10:01:07.813Z,5.90
2024-02-10T10:03:34.294Z,5.30
2024-02-10T10:06:03.451Z,5.60
2024-02-10T10:08:34.789Z,6.10
2024-02-10T10:11:02.134Z,6.60
2024-02-10T10:13:28.752Z,6.20
2024-02-10T10:15:55.130Z,6.10
2024-02-10T10:18:21.809Z,7.60
2024-02-10T10:20:48.391Z,7.40
2024-02-10T10:23:15.876Z,8.20
2024-02-10T10:25:46.239Z,7.80
2024-02-10T10:28:14.235Z,7.80
2024-02-10T10:30:40.407Z,7.40
2024-02-10T10:33:09.683Z,8.90
2024-02-10T10:35:37.591Z,6.60
2024-02-10T10:38:03.966Z,7.10
2024-02-10T10:40:31.425Z,6.00
2024-02-10T10:42:57.788Z,8.10
2024-02-10T10:45:24.219Z,6.10
2024-02-10T10:47:50.783Z,6.80
2024-02-10T10:50:17.276Z,5.30
2024-02-10T10:52:43.793Z,5.30
2024-02-10T10:55:12.288Z,7.30
2024-02-10T10:57:39.959Z,6.00
2024-02-10T11:00:15.688Z,6.10
2024-02-10T11:02:45.224Z,5.40
2024-02-10T11:05:18.626Z,5.90
2024-02-10T11:07:49.133Z,5.60
2024-02-10T11:10:17.855Z,5.60
2024-02-10T11:12:44.207Z,6.40
2024-02-10T11:15:10.640Z,6.40
2024-02-10T11:17:36.929Z,4.70
2024-02-10T11:20:04.405Z,6.00
2024-02-10T11:22:30.965Z,4.90
2024-02-10T11:24:57.324Z,5.00
2024-02-10T11:27:25.488Z,5.60
2024-02-10T11:29:52.025Z,6.30
2024-02-10T11:32:19.426Z,5.00
2024-02-10T11:34:45.747Z,7.10
2024-02-10T11:37:12.367Z,4.80
2024-02-10T11:39:38.632Z,6.20
2024-02-10T11:42:05.099Z,6.60
2024-02-10T11:44:31.831Z,3.80
2024-02-10T11:47:00.037Z,5.00
2024-02-10T11:49:27.601Z,4.40
2024-02-10T11:51:57.064Z,5.10
2024-02-10T11:54:30.058Z,3.50
2024-02-10T11:56:57.997Z,3.40
2024-02-10T11:59:26.472Z,5.20
2024-02-10T12:01:52.794Z,4.30
2024-02-10T12:04:19.421Z,5.40
2024-02-10T12:06:46.853Z,4.60
2024-02-10T12:09:13.549Z,6.40
2024-02-10T12:11:40.040Z,6.20
2024-02-10T12:14:10.931Z,3.90
2024-02-10T12:16:38.392Z,4.50
2024-02-10T12:19:04.805Z,4.60
2024-02-10T12:21:31.162Z,6.60
2024-02-10T12:23:58.935Z,5.70
2024-02-10T12:26:25.504Z,4.40
2024-02-10T12:28:51.963Z,5.10
2024-02-10T12:31:21.556Z,3.30
2024-02-10T12:33:51.993Z,3.90
2024-02-10T12:36:20.756Z,4.20
2024-02-10T12:38:47.107Z,6.40
2024-02-10T12:41:17.086Z,7.40
2024-02-10T12:43:44.391Z,7.30
2024-02-10T12:46:11.181Z,6.30
2024-02-10T12:48:37.877Z,6.90
2024-02-10T12:51:04.366Z,4.80
2024-02-10T12:53:30.593Z,4.30
2024-02-10T12:55:56.971Z,5.50
2024-02-10T12:58:25.859Z,3.90
2024-02-10T13:00:57.318Z,4.60
2024-02-10T13:03:23.711Z,4.40
2024-02-10T13:05:50.475Z,5.70
2024-02-10T13:08:18.481Z,5.20
2024-02-10T13:10:45.999Z,4.40
2024-02-10T13:13:12.442Z,4.60
2024-02-10T13:15:43.549Z,4.10
2024-02-10T13:18:10.199Z,4.10
2024-02-10T13:20:36.777Z,4.00
2024-02-10T13:23:04.381Z,4.70
2024-02-10T13:25:31.229Z,4.50
2024-02-10T13:27:57.737Z,4.40
2024-02-10T13:30:24.125Z,3.30
2024-02-10T13:32:50.459Z,4.40
2024-02-10T13:35:20.676Z,4.80
2024-02-10T13:38:08.261Z,4.80
2024-02-10T13:40:56.160Z,4.30
2024-02-10T13:43:42.736Z,7.00
2024-02-10T13:46:28.119Z,5.80
2024-02-10T13:49:16.917Z,3.90
2024-02-10T13:52:01.856Z,5.10
2024-02-10T13:54:47.018Z,4.00
2024-02-10T13:57:31.931Z,6.40
2024-02-10T13:59:58.282Z,4.60
2024-02-10T14:02:24.657Z,4.40
2024-02-10T14:04:51.490Z,4.50
2024-02-10T14:07:33.582Z,5.00
2024-02-10T14:10:12.993Z,4.20
2024-02-10T14:12:40.320Z,4.40
2024-02-10T14:15:16.700Z,4.90
2024-02-10T14:17:43.331Z,4.30
2024-02-10T14:20:19.342Z,5.60
2024-02-10T14:22:46.805Z,4.80
2024-02-10T14:25:24.451Z,5.00
2024-02-10T14:27:55.565Z,5.30
2024-02-10T14:30:32.235Z,6.40
2024-02-10T14:32:58.709Z,5.80
2024-02-10T14:35:44.769Z,6.60
2024-02-10T14:38:24.586Z,10.00
2024-02-10T14:40:51.903Z,8.60
2024-02-10T14:43:18.649Z,12.30
2024-02-10T14:45:44.985Z,18.00
2024-02-10T14:48:11.362Z,25.90
2024-02-10T14:50:38.193Z,63.10
2024-02-10T14:53:04.815Z,44.00
2024-02-10T14:55:31.260Z,34.10
2024-02-10T14:57:57.614Z,18.70
2024-02-10T15:00:31.553Z,13.80
2024-02-10T15:02:58.244Z,13.70
2024-02-10T15:05:26.784Z,13.60
2024-02-10T15:07:53.201Z,13.40
2024-02-10T15:10:19.508Z,11.20
2024-02-10T15:12:45.945Z,12.00
2024-02-10T15:15:12.486Z,12.40
2024-02-10T15:17:38.864Z,13.30
2024-02-10T15:20:05.920Z,13.80
2024-02-10T15:22:34.285Z,14.70
2024-02-10T15:25:02.533Z,17.10
2024-02-10T15:27:28.865Z,18.80
2024-02-10T15:29:58.891Z,13.10
2024-02-10T15:32:26.355Z,13.60
2024-02-10T15:35:00.491Z,12.30
2024-02-10T15:37:29.055Z,13.70
2024-02-10T15:39:55.631Z,10.90
2024-02-10T15:42:22.030Z,10.20
2024-02-10T15:44:48.603Z,9.40
2024-02-10T15:47:18.269Z,8.80
2024-02-10T15:49:44.900Z,12.50
2024-02-10T15:52:15.093Z,8.70
2024-02-10T15:54:41.289Z,11.70
2024-02-10T15:57:10.080Z,12.10
2024-02-10T15:59:38.532Z,12.60
2024-02-10T16:02:11.172Z,10.80
2024-02-10T16:04:40.335Z,10.80
2024-02-10T16:07:06.661Z,11.30
2024-02-10T16:09:33.003Z,11.60
2024-02-10T16:11:59.453Z,11.60
2024-02-10T16:14:29.529Z,9.40
2024-02-10T16:16:59.831Z,10.70
2024-02-10T16:19:27.690Z,10.50
2024-02-10T16:21:54.209Z,9.80
2024-02-10T16:24:20.515Z,12.20
2024-02-10T16:26:46.886Z,17.30
2024-02-10T16:29:13.826Z,12.30
2024-02-10T16:31:40.352Z,13.20
2024-02-10T16:34:08.457Z,12.20
2024-02-10T16:36:35.731Z,11.80
2024-02-10T16:39:02.917Z,11.70
2024-02-10T16:41:33.887Z,12.30
2024-02-10T16:44:00.372Z,35.10
2024-02-10T16:46:28.421Z,85.70
2024-02-10T16:48:54.901Z,98.90
2024-02-10T16:51:21.231Z,72.60
2024-02-10T16:53:48.598Z,54.10
2024-02-10T16:56:14.978Z,60.10
2024-02-10T16:58:41.817Z,45.00
2024-02-10T17:01:10.832Z,29.50
2024-02-10T17:03:37.434Z,22.20
2024-02-10T17:06:06.284Z,27.60
2024-02-10T17:08:32.900Z,25.00
2024-02-10T17:10:59.285Z,23.20
2024-02-10T17:13:29.381Z,20.10
2024-02-10T17:15:55.942Z,23.00
2024-02-10T17:18:22.524Z,25.00
2024-02-10T17:20:52.928Z,23.90
2024-02-10T17:23:22.511Z,21.70
2024-02-10T17:25:48.947Z,24.80
2024-02-10T17:28:15.590Z,22.70
2024-02-10T17:30:42.227Z,32.00
2024-02-10T17:33:08.760Z,25.30
2024-02-10T17:35:35.468Z,27.80
2024-02-10T17:38:02.864Z,23.40
2024-02-10T17:40:31.489Z,24.50
2024-02-10T17:42:59.781Z,27.70
2024-02-10T17:45:27.397Z,28.10
2024-02-10T17:47:53.859Z,26.70
2024-02-10T17:50:25.446Z,27.80
2024-02-10T17:52:51.998Z,26.40
2024-02-10T17:55:22.087Z,31.80
2024-02-10T17:57:48.380Z,32.30
2024-02-10T18:00:17.011Z,24.40
2024-02-10T18:02:47.780Z,31.10
2024-02-10T18:05:14.234Z,19.90
2024-02-10T18:07:40.691Z,20.10
2024-02-10T18:10:07.741Z,24.00
2024-02-10T18:12:33.980Z,24.90
2024-02-10T18:15:00.571Z,25.10
2024-02-10T18:17:26.858Z,24.00
2024-02-10T18:19:53.313Z,23.50
2024-02-10T18:22:21.265Z,19.30
2024-02-10T18:24:48.417Z,23.40
2024-02-10T18:27:15.677Z,21.40
2024-02-10T18:29:42.048Z,23.60
2024-02-10T18:32:09.013Z,19.40
2024-02-10T18:34:35.836Z,18.90
2024-02-10T18:37:02.631Z,17.40
2024-02-10T18:39:29.052Z,17.50
2024-02-10T18:41:55.626Z,19.60
2024-02-10T18:44:22.789Z,18.20
2024-02-10T18:46:50.718Z,20.40
2024-02-10T18:49:17.073Z,67.00
2024-02-10T18:51:43.485Z,32.60
2024-02-10T18:54:13.604Z,43.90
2024-02-10T18:56:42.171Z,39.90
2024-02-10T18:59:09.315Z,42.30
2024-02-10T19:01:36.583Z,32.80
2024-02-10T19:04:05.554Z,28.90
2024-02-10T19:06:31.982Z,30.60
2024-02-10T19:08:59.025Z,36.00
2024-02-10T19:11:25.513Z,33.70
2024-02-10T19:13:55.022Z,35.70
2024-02-10T19:16:21.397Z,34.70
2024-02-10T19:18:49.414Z,34.90
2024-02-10T19:21:16.617Z,37.90
2024-02-10T19:23:44.322Z,38.40
2024-02-10T19:26:10.778Z,38.90
2024-02-10T19:28:37.246Z,39.30
2024-02-10T19:31:03.766Z,39.80
2024-02-10T19:33:30.362Z,40.60
2024-02-10T19:35:57.044Z,44.20
2024-02-10T19:38:29.904Z,43.20
2024-02-10T19:40:58.748Z,44.50
2024-02-10T19:43:29.096Z,49.70
2024-02-10T19:45:55.449Z,55.10
2024-02-10T19:48:24.519Z,45.80
2024-02-10T19:50:50.937Z,45.80
2024-02-10T19:53:18.804Z,34.50
2024-02-10T19:55:45.430Z,37.20
2024-02-10T19:58:13.371Z,29.50
2024-02-10T20:00:39.882Z,43.40
2024-02-10T20:03:07.716Z,37.70
2024-02-10T20:05:37.264Z,28.70
2024-02-10T20:08:08.272Z,22.50
2024-02-10T20:10:34.973Z,23.00
2024-02-10T20:13:05.252Z,22.20
2024-02-10T20:15:32.538Z,21.90
2024-02-10T20:18:03.384Z,20.00
2024-02-10T20:20:31.623Z,20.10
2024-02-10T20:22:58.032Z,18.90
2024-02-10T20:25:26.157Z,19.50
2024-02-10T20:27:52.648Z,21.90
2024-02-10T20:30:22.651Z,22.40
2024-02-10T20:32:50.010Z,24.50
2024-02-10T20:35:18.792Z,20.00
2024-02-10T20:37:45.240Z,20.10
2024-02-10T20:40:14.973Z,22.70
2024-02-10T20:42:41.267Z,26.20
2024-02-10T20:45:07.699Z,20.70
2024-02-10T20:47:38.852Z,17.40
2024-02-10T20:50:05.279Z,18.20
2024-02-10T20:52:32.470Z,18.10
2024-02-10T20:54:58.912Z,24.50
2024-02-10T20:57:28.711Z,23.10
2024-02-10T20:59:57.966Z,21.30
2024-02-10T21:02:27.067Z,30.60
2024-02-10T21:04:53.435Z,15.20
2024-02-10T21:07:21.750Z,15.60
2024-02-10T21:09:48.295Z,12.20
2024-02-10T21:12:15.855Z,16.10
2024-02-10T21:14:44.706Z,15.10
2024-02-10T21:17:11.095Z,15.30
2024-02-10T21:19:39.233Z,16.40
2024-02-10T21:22:06.599Z,20.50
2024-02-10T21:24:33.059Z,13.70
2024-02-10T21:26:59.478Z,15.50
2024-02-10T21:29:25.936Z,17.40
2024-02-10T21:31:53.474Z,18.80
2024-02-10T21:34:19.816Z,17.80
2024-02-10T21:36:46.312Z,17.40
2024-02-10T21:39:16.678Z,17.50
2024-02-10T21:41:48.813Z,16.90
2024-02-10T21:44:16.243Z,14.00
2024-02-10T21:46:43.183Z,14.10
2024-02-10T21:49:09.534Z,19.00
2024-02-10T21:51:36.321Z,16.90
2024-02-10T21:54:02.737Z,17.40
2024-02-10T21:56:29.991Z,20.90
2024-02-10T21:59:00.417Z,18.30
2024-02-10T22:01:29.665Z,20.10
2024-02-10T22:03:56.180Z,23.70
2024-02-10T22:06:22.549Z,23.20
2024-02-10T22:08:49.200Z,20.30
2024-02-10T22:11:15.658Z,21.00
2024-02-10T22:13:42.418Z,31.80
2024-02-10T22:16:08.662Z,20.40
2024-02-10T22:18:38.096Z,27.60
2024-02-10T22:21:05.881Z,25.30
2024-02-10T22:23:33.434Z,40.00
2024-02-10T22:26:00.552Z,37.10
2024-02-10T22:28:30.971Z,37.30
2024-02-10T22:30:58.973Z,26.40
2024-02-10T22:33:25.565Z,18.30
2024-02-10T22:35:53.451Z,19.50
2024-02-10T22:38:21.887Z,18.70
2024-02-10T22:40:48.413Z,16.40
2024-02-10T22:43:16.557Z,14.50
2024-02-10T22:45:45.479Z,18.00
2024-02-10T22:48:12.503Z,19.00
2024-02-10T22:50:39.240Z,41.40
2024-02-10T22:53:05.838Z,65.80
2024-02-10T22:55:36.482Z,49.20
2024-02-10T22:58:04.776Z,34.40
2024-02-10T23:00:42.680Z,22.80
2024-02-10T23:03:10.056Z,17.00
2024-02-10T23:05:36.717Z,20.20
2024-02-10T23:08:03.306Z,15.80
2024-02-10T23:10:29.760Z,19.40
2024-02-10T23:13:08.614Z,15.00
2024-02-10T23:15:36.126Z,15.90
2024-02-10T23:18:11.364Z,14.20
2024-02-10T23:20:42.627Z,16.10
2024-02-10T23:23:15.846Z,15.30
2024-02-10T23:25:42.581Z,15.80
2024-02-10T23:28:15.180Z,17.00
2024-02-10T23:30:41.504Z,18.60
2024-02-10T23:33:07.949Z,14.70
2024-02-10T23:35:36.471Z,26.50
2024-02-10T23:38:03.138Z,38.10
2024-02-10T23:40:31.430Z,29.80
2024-02-10T23:43:03.820Z,20.00
2024-02-10T23:45:30.955Z,19.40
2024-02-10T23:47:59.245Z,17.10
2024-02-10T23:50:28.469Z,14.30
2024-02-10T23:52:55.286Z,17.00
2024-02-10T23:55:23.127Z,16.40
2024-02-10T23:57:49.607Z,18.50
